createdAt,value
2023-03-26T00:01:28.694Z,7.45
2023-03-26T00:11:30.016Z,8.13
2023-03-26T00:21:31.320Z,7.72
2023-03-26T00:31:32.642Z,7.88
2023-03-26T00:41:33.936Z,9.65
2023-03-26T00:51:37.446Z,8.27
2023-03-26T01:01:38.821Z,8.98
2023-03-26T01:11:40.162Z,7.28
2023-03-26T01:21:41.459Z,8.15
2023-03-26T01:31:42.747Z,7.72
2023-03-26T01:41:43.987Z,6.00
2023-03-26T01:51:45.244Z,7.03
2023-03-26T02:01:47.721Z,8.57
2023-03-26T02:11:49.080Z,7.55
2023-03-26T02:21:50.368Z,7.45
2023-03-26T02:31:51.686Z,7.60
2023-03-26T02:41:54.206Z,6.93
2023-03-26T02:51:55.490Z,7.10
2023-03-26T03:01:56.846Z,6.18
2023-03-26T03:11:58.196Z,6.03
2023-03-26T03:21:59.463Z,6.55
2023-03-26T03:32:00.804Z,6.53
2023-03-26T03:42:02.056Z,6.28
2023-03-26T03:52:03.318Z,6.10
2023-03-26T04:02:04.593Z,5.40
2023-03-26T04:12:05.882Z,7.32
2023-03-26T04:22:08.271Z,5.55
2023-03-26T04:32:09.537Z,6.35
2023-03-26T04:42:10.824Z,5.10
2023-03-26T04:52:12.109Z,6.00
2023-03-26T05:02:13.394Z,5.85
2023-03-26T05:12:14.688Z,6.38
2023-03-26T05:22:15.941Z,5.45
2023-03-26T05:32:17.241Z,4.30
2023-03-26T05:42:18.600Z,4.25
2023-03-26T05:52:19.901Z,5.82
2023-03-26T06:02:21.245Z,5.93
2023-03-26T06:12:22.510Z,4.05
2023-03-26T06:22:23.782Z,5.97
2023-03-26T06:32:25.109Z,6.40
2023-03-26T06:42:31.922Z,5.43
2023-03-26T06:52:47.625Z,5.55
2023-03-26T07:02:48.885Z,5.32
2023-03-26T07:12:50.383Z,5.85
2023-03-26T07:22:56.061Z,5.93
2023-03-26T07:33:06.182Z,6.10
2023-03-26T07:43:14.279Z,4.50
2023-03-26T07:53:23.062Z,6.35
2023-03-26T08:03:28.091Z,4.45
2023-03-26T08:13:36.883Z,4.95
2023-03-26T08:23:51.064Z,4.05
2023-03-26T08:33:56.184Z,6.50
2023-03-26T08:44:04.130Z,3.70
2023-03-26T08:54:13.981Z,4.68
2023-03-26T09:04:24.860Z,4.15
2023-03-26T09:14:32.795Z,3.87
2023-03-26T09:24:36.036Z,3.55
2023-03-26T09:34:46.900Z,3.70
2023-03-26T09:45:11.065Z,3.77
2023-03-26T09:55:15.318Z,3.70
2023-03-26T10:05:16.730Z,3.38
2023-03-26T10:15:19.807Z,4.03
2023-03-26T10:25:32.871Z,4.13
2023-03-26T10:35:44.230Z,2.60
2023-03-26T10:45:46.806Z,3.35
2023-03-26T10:55:54.877Z,3.33
2023-03-26T11:06:02.907Z,3.42
2023-03-26T11:16:10.838Z,2.42
2023-03-26T11:26:17.500Z,2.38
2023-03-26T11:36:22.387Z,2.92
2023-03-26T11:46:31.370Z,1.85
2023-03-26T11:56:38.288Z,2.97
2023-03-26T12:06:47.114Z,1.92
2023-03-26T12:16:56.620Z,2.20
2023-03-26T12:27:04.874Z,2.65
2023-03-26T12:37:12.881Z,1.88
2023-03-26T12:47:58.146Z,2.63
2023-03-26T12:57:42.477Z,1.60
2023-03-26T13:07:43.831Z,2.08
2023-03-26T13:17:46.680Z,1.73
2023-03-26T13:27:55.046Z,1.45
2023-03-26T13:38:03.000Z,1.27
2023-03-26T13:48:10.992Z,1.98
2023-03-26T13:58:21.370Z,1.73
2023-03-26T14:08:26.966Z,2.05
2023-03-26T14:18:48.477Z,1.77
2023-03-26T14:28:49.822Z,2.03
2023-03-26T14:38:54.841Z,2.25
2023-03-26T14:48:59.042Z,2.53
2023-03-26T14:59:06.978Z,3.53
2023-03-26T15:09:16.231Z,2.92
2023-03-26T15:40:21.910Z,3.15
2023-03-26T15:50:26.610Z,3.83
2023-03-26T16:00:35.932Z,3.75
2023-03-26T16:10:43.924Z,3.47
2023-03-26T16:20:51.926Z,3.70
2023-03-26T16:30:59.963Z,3.63
2023-03-26T16:41:08.947Z,4.05
2023-03-26T16:51:18.586Z,3.30
2023-03-26T17:01:25.932Z,3.00
2023-03-26T17:11:35.955Z,4.13
2023-03-26T17:21:45.539Z,4.07
2023-03-26T17:31:49.946Z,3.63
2023-03-26T17:52:15.143Z,3.58
2023-03-26T18:02:16.456Z,2.80
2023-03-26T18:12:17.804Z,4.35
2023-03-26T18:22:20.419Z,5.20
2023-03-26T18:32:21.701Z,5.32
2023-03-26T18:42:23.485Z,2.78
2023-03-26T18:52:26.104Z,4.03
2023-03-26T19:02:30.396Z,3.80
2023-03-26T19:12:31.845Z,3.38
2023-03-26T19:22:33.263Z,3.35
2023-03-26T19:32:34.697Z,5.45
2023-03-26T19:42:43.792Z,4.47
2023-03-26T19:52:45.930Z,2.33
2023-03-26T20:02:47.321Z,4.13
2023-03-26T20:12:48.759Z,4.47
2023-03-26T20:22:53.026Z,3.40
2023-03-26T20:33:12.888Z,3.20
2023-03-26T20:43:15.022Z,3.92
2023-03-26T20:53:16.317Z,5.22
2023-03-26T21:03:17.631Z,4.15
2023-03-26T21:13:19.898Z,2.55
2023-03-26T21:23:21.141Z,3.67
2023-03-26T21:33:22.400Z,3.72
2023-03-26T21:43:23.690Z,4.65
2023-03-26T21:53:24.978Z,3.22
2023-03-26T22:03:26.238Z,4.07
2023-03-26T22:13:27.538Z,3.05
2023-03-26T22:23:28.823Z,4.18
2023-03-26T22:33:30.104Z,3.42
2023-03-26T22:43:31.346Z,3.08
2023-03-26T22:53:32.593Z,3.47
2023-03-26T23:03:35.306Z,3.17
2023-03-26T23:13:36.955Z,2.75
2023-03-26T23:23:38.266Z,2.95
2023-03-26T23:33:39.533Z,3.33
2023-03-26T23:43:40.794Z,3.50
2023-03-26T23:53:56.376Z,3.10
